sensor_id;sensor_type;location;lat;lon;timestamp;temperature;humidity
15900;DHT22;8048;50.644;6.184;2024-02-15T00:01:21;10.90;99.90
15900;DHT22;8048;50.644;6.184;2024-02-15T00:03:46;10.90;99.90
15900;DHT22;8048;50.644;6.184;2024-02-15T00:06:12;10.90;99.90
15900;DHT22;8048;50.644;6.184;2024-02-15T00:08:38;10.90;99.90
15900;DHT22;8048;50.644;6.184;2024-02-15T00:11:03;11.00;99.90
15900;DHT22;8048;50.644;6.184;2024-02-15T00:13:37;10.90;99.90
15900;DHT22;8048;50.644;6.184;2024-02-15T00:16:43;10.50;99.90
15900;DHT22;8048;50.644;6.184;2024-02-15T00:19:09;10.90;99.90
15900;DHT22;8048;50.644;6.184;2024-02-15T00:21:35;11.00;99.90
15900;DHT22;8048;50.644;6.184;2024-02-15T00:24:01;10.90;99.90
15900;DHT22;8048;50.644;6.184;2024-02-15T00:26:27;10.90;99.90
15900;DHT22;8048;50.644;6.184;2024-02-15T00:28:52;11.00;99.90
15900;DHT22;8048;50.644;6.184;2024-02-15T00:31:18;10.90;99.90
15900;DHT22;8048;50.644;6.184;2024-02-15T00:33:44;10.90;99.90
15900;DHT22;8048;50.644;6.184;2024-02-15T00:36:10;10.90;99.90
15900;DHT22;8048;50.644;6.184;2024-02-15T00:38:35;10.90;99.90
15900;DHT22;8048;50.644;6.184;2024-02-15T00:41:01;11.00;99.90
15900;DHT22;8048;50.644;6.184;2024-02-15T00:43:27;10.90;99.90
15900;DHT22;8048;50.644;6.184;2024-02-15T00:45:53;10.90;99.90
15900;DHT22;8048;50.644;6.184;2024-02-15T00:48:19;10.90;99.90
15900;DHT22;8048;50.644;6.184;2024-02-15T00:50:44;10.90;99.90
15900;DHT22;8048;50.644;6.184;2024-02-15T00:53:10;10.90;99.90
15900;DHT22;8048;50.644;6.184;2024-02-15T00:55:36;10.90;99.90
15900;DHT22;8048;50.644;6.184;2024-02-15T00:58:02;10.90;99.90
15900;DHT22;8048;50.644;6.184;2024-02-15T01:00:28;10.90;99.90
15900;DHT22;8048;50.644;6.184;2024-02-15T01:02:54;11.00;99.90
15900;DHT22;8048;50.644;6.184;2024-02-15T01:05:20;10.90;99.90
15900;DHT22;8048;50.644;6.184;2024-02-15T01:07:47;10.90;99.90
15900;DHT22;8048;50.644;6.184;2024-02-15T01:10:14;10.90;99.90
15900;DHT22;8048;50.644;6.184;2024-02-15T01:12:40;10.90;99.90
15900;DHT22;8048;50.644;6.184;2024-02-15T01:15:06;10.90;99.90
15900;DHT22;8048;50.644;6.184;2024-02-15T01:17:31;10.90;99.90
15900;DHT22;8048;50.644;6.184;2024-02-15T01:19:57;11.00;99.90
15900;DHT22;8048;50.644;6.184;2024-02-15T01:22:22;11.00;99.90
15900;DHT22;8048;50.644;6.184;2024-02-15T01:24:50;11.00;99.90
15900;DHT22;8048;50.644;6.184;2024-02-15T01:27:16;11.00;99.90
15900;DHT22;8048;50.644;6.184;2024-02-15T01:29:42;10.90;99.90
15900;DHT22;8048;50.644;6.184;2024-02-15T01:32:08;11.00;99.90
15900;DHT22;8048;50.644;6.184;2024-02-15T01:34:33;11.00;99.90
15900;DHT22;8048;50.644;6.184;2024-02-15T01:36:59;11.00;99.90
15900;DHT22;8048;50.644;6.184;2024-02-15T01:39:25;11.00;99.90
15900;DHT22;8048;50.644;6.184;2024-02-15T01:41:51;11.00;99.90
15900;DHT22;8048;50.644;6.184;2024-02-15T01:44:21;11.00;99.90
15900;DHT22;8048;50.644;6.184;2024-02-15T01:46:47;11.00;99.90
15900;DHT22;8048;50.644;6.184;2024-02-15T01:49:14;11.00;99.90
15900;DHT22;8048;50.644;6.184;2024-02-15T01:51:41;11.00;99.90
15900;DHT22;8048;50.644;6.184;2024-02-15T01:54:09;10.90;99.90
15900;DHT22;8048;50.644;6.184;2024-02-15T01:56:35;10.90;99.90
15900;DHT22;8048;50.644;6.184;2024-02-15T01:59:02;10.90;99.90
15900;DHT22;8048;50.644;6.184;2024-02-15T02:01:30;11.00;99.90
15900;DHT22;8048;50.644;6.184;2024-02-15T02:04:20;11.00;99.90
15900;DHT22;8048;50.644;6.184;2024-02-15T02:06:46;11.10;99.90
15900;DHT22;8048;50.644;6.184;2024-02-15T02:09:12;11.00;99.90
15900;DHT22;8048;50.644;6.184;2024-02-15T02:11:38;11.00;99.90
15900;DHT22;8048;50.644;6.184;2024-02-15T02:14:04;11.00;99.90
15900;DHT22;8048;50.644;6.184;2024-02-15T02:16:30;11.00;99.90
15900;DHT22;8048;50.644;6.184;2024-02-15T02:18:58;10.90;99.90
15900;DHT22;8048;50.644;6.184;2024-02-15T02:21:28;10.90;99.90
15900;DHT22;8048;50.644;6.184;2024-02-15T02:23:56;10.90;99.90
15900;DHT22;8048;50.644;6.184;2024-02-15T02:26:22;10.90;99.90
15900;DHT22;8048;50.644;6.184;2024-02-15T02:28:49;10.80;99.90
15900;DHT22;8048;50.644;6.184;2024-02-15T02:31:15;10.80;99.90
15900;DHT22;8048;50.644;6.184;2024-02-15T02:33:52;10.80;99.90
15900;DHT22;8048;50.644;6.184;2024-02-15T02:36:26;10.80;99.90
15900;DHT22;8048;50.644;6.184;2024-02-15T02:38:52;10.80;99.90
15900;DHT22;8048;50.644;6.184;2024-02-15T02:41:18;10.70;99.90
15900;DHT22;8048;50.644;6.184;2024-02-15T02:43:48;10.70;99.90
15900;DHT22;8048;50.644;6.184;2024-02-15T02:46:14;10.80;99.90
15900;DHT22;8048;50.644;6.184;2024-02-15T02:48:40;10.80;99.90
15900;DHT22;8048;50.644;6.184;2024-02-15T02:51:07;10.90;99.90
15900;DHT22;8048;50.644;6.184;2024-02-15T02:53:33;10.90;99.90
15900;DHT22;8048;50.644;6.184;2024-02-15T02:55:59;10.80;99.90
15900;DHT22;8048;50.644;6.184;2024-02-15T02:58:25;10.80;99.90
15900;DHT22;8048;50.644;6.184;2024-02-15T03:00:51;10.70;99.90
15900;DHT22;8048;50.644;6.184;2024-02-15T03:03:17;10.70;99.90
15900;DHT22;8048;50.644;6.184;2024-02-15T03:05:44;10.80;99.90
15900;DHT22;8048;50.644;6.184;2024-02-15T03:08:11;10.70;99.90
15900;DHT22;8048;50.644;6.184;2024-02-15T03:10:38;10.70;99.90
15900;DHT22;8048;50.644;6.184;2024-02-15T03:13:05;10.70;99.90
15900;DHT22;8048;50.644;6.184;2024-02-15T03:15:30;10.70;99.90
15900;DHT22;8048;50.644;6.184;2024-02-15T03:17:58;10.80;99.90
15900;DHT22;8048;50.644;6.184;2024-02-15T03:20:24;10.80;99.90
15900;DHT22;8048;50.644;6.184;2024-02-15T03:22:56;10.70;99.90
15900;DHT22;8048;50.644;6.184;2024-02-15T03:25:23;10.80;99.90
15900;DHT22;8048;50.644;6.184;2024-02-15T03:27:50;10.70;99.90
15900;DHT22;8048;50.644;6.184;2024-02-15T03:30:18;10.60;99.90
15900;DHT22;8048;50.644;6.184;2024-02-15T03:32:47;10.60;99.90
15900;DHT22;8048;50.644;6.184;2024-02-15T03:35:21;10.60;99.90
15900;DHT22;8048;50.644;6.184;2024-02-15T03:37:51;10.70;99.90
15900;DHT22;8048;50.644;6.184;2024-02-15T03:40:17;10.70;99.90
15900;DHT22;8048;50.644;6.184;2024-02-15T03:42:43;10.60;99.90
15900;DHT22;8048;50.644;6.184;2024-02-15T03:45:09;10.70;99.90
15900;DHT22;8048;50.644;6.184;2024-02-15T03:47:36;10.60;99.90
15900;DHT22;8048;50.644;6.184;2024-02-15T03:50:06;10.50;99.90
15900;DHT22;8048;50.644;6.184;2024-02-15T03:52:32;10.50;99.90
15900;DHT22;8048;50.644;6.184;2024-02-15T03:54:58;10.50;99.90
15900;DHT22;8048;50.644;6.184;2024-02-15T03:57:25;10.40;99.90
15900;DHT22;8048;50.644;6.184;2024-02-15T03:59:51;10.40;99.90
15900;DHT22;8048;50.644;6.184;2024-02-15T04:02:19;10.40;99.90
15900;DHT22;8048;50.644;6.184;2024-02-15T04:04:44;10.30;99.90
15900;DHT22;8048;50.644;6.184;2024-02-15T04:07:13;10.40;99.90
15900;DHT22;8048;50.644;6.184;2024-02-15T04:09:40;10.40;99.90
15900;DHT22;8048;50.644;6.184;2024-02-15T04:12:06;10.30;99.90
15900;DHT22;8048;50.644;6.184;2024-02-15T04:14:33;10.30;99.90
15900;DHT22;8048;50.644;6.184;2024-02-15T04:16:59;10.30;99.90
15900;DHT22;8048;50.644;6.184;2024-02-15T04:19:25;10.40;99.90
15900;DHT22;8048;50.644;6.184;2024-02-15T04:21:51;10.40;99.90
15900;DHT22;8048;50.644;6.184;2024-02-15T04:24:16;10.30;99.90
15900;DHT22;8048;50.644;6.184;2024-02-15T04:26:42;10.40;99.90
15900;DHT22;8048;50.644;6.184;2024-02-15T04:29:08;10.50;99.90
15900;DHT22;8048;50.644;6.184;2024-02-15T04:31:37;10.60;99.90
15900;DHT22;8048;50.644;6.184;2024-02-15T04:34:04;10.60;99.90
15900;DHT22;8048;50.644;6.184;2024-02-15T04:36:30;10.60;99.90
15900;DHT22;8048;50.644;6.184;2024-02-15T04:39:00;10.50;99.90
15900;DHT22;8048;50.644;6.184;2024-02-15T04:41:28;10.60;99.90
15900;DHT22;8048;50.644;6.184;2024-02-15T04:43:54;10.60;99.90
15900;DHT22;8048;50.644;6.184;2024-02-15T04:46:20;10.60;99.90
15900;DHT22;8048;50.644;6.184;2024-02-15T04:48:50;10.60;99.90
15900;DHT22;8048;50.644;6.184;2024-02-15T04:51:16;10.60;99.90
15900;DHT22;8048;50.644;6.184;2024-02-15T04:53:42;10.60;99.90
15900;DHT22;8048;50.644;6.184;2024-02-15T04:56:08;10.60;99.90
15900;DHT22;8048;50.644;6.184;2024-02-15T04:58:40;10.70;99.90
15900;DHT22;8048;50.644;6.184;2024-02-15T05:01:15;10.60;99.90
15900;DHT22;8048;50.644;6.184;2024-02-15T05:03:42;10.60;99.90
15900;DHT22;8048;50.644;6.184;2024-02-15T05:06:08;10.60;99.90
15900;DHT22;8048;50.644;6.184;2024-02-15T05:08:34;10.60;99.90
15900;DHT22;8048;50.644;6.184;2024-02-15T05:11:03;10.60;99.90
15900;DHT22;8048;50.644;6.184;2024-02-15T05:13:30;10.50;99.90
15900;DHT22;8048;50.644;6.184;2024-02-15T05:15:56;10.60;99.90
15900;DHT22;8048;50.644;6.184;2024-02-15T05:18:22;10.70;99.90
15900;DHT22;8048;50.644;6.184;2024-02-15T05:20:47;10.70;99.90
15900;DHT22;8048;50.644;6.184;2024-02-15T05:23:13;10.80;99.90
15900;DHT22;8048;50.644;6.184;2024-02-15T05:25:40;10.70;99.90
15900;DHT22;8048;50.644;6.184;2024-02-15T05:28:06;10.70;99.90
15900;DHT22;8048;50.644;6.184;2024-02-15T05:30:33;10.70;99.90
15900;DHT22;8048;50.644;6.184;2024-02-15T05:32:59;10.70;99.90
15900;DHT22;8048;50.644;6.184;2024-02-15T05:35:25;10.80;99.90
15900;DHT22;8048;50.644;6.184;2024-02-15T05:37:52;10.90;99.90
15900;DHT22;8048;50.644;6.184;2024-02-15T05:40:18;10.90;99.90
15900;DHT22;8048;50.644;6.184;2024-02-15T05:42:45;10.90;99.90
15900;DHT22;8048;50.644;6.184;2024-02-15T05:47:52;10.90;99.90
15900;DHT22;8048;50.644;6.184;2024-02-15T05:50:18;10.90;99.90
15900;DHT22;8048;50.644;6.184;2024-02-15T05:52:46;10.80;99.90
15900;DHT22;8048;50.644;6.184;2024-02-15T05:55:12;10.90;99.90
15900;DHT22;8048;50.644;6.184;2024-02-15T05:57:45;10.80;99.90
15900;DHT22;8048;50.644;6.184;2024-02-15T06:00:11;10.80;99.90
15900;DHT22;8048;50.644;6.184;2024-02-15T06:02:37;10.80;99.90
15900;DHT22;8048;50.644;6.184;2024-02-15T06:05:03;10.80;99.90
15900;DHT22;8048;50.644;6.184;2024-02-15T06:07:30;10.80;99.90
15900;DHT22;8048;50.644;6.184;2024-02-15T06:09:59;10.80;99.90
15900;DHT22;8048;50.644;6.184;2024-02-15T06:12:28;10.90;99.90
15900;DHT22;8048;50.644;6.184;2024-02-15T06:14:54;10.80;99.90
15900;DHT22;8048;50.644;6.184;2024-02-15T06:17:20;10.80;99.90
15900;DHT22;8048;50.644;6.184;2024-02-15T06:19:46;10.70;99.90
15900;DHT22;8048;50.644;6.184;2024-02-15T06:22:11;10.80;99.90
15900;DHT22;8048;50.644;6.184;2024-02-15T06:24:38;10.80;99.90
15900;DHT22;8048;50.644;6.184;2024-02-15T06:27:04;10.70;99.90
15900;DHT22;8048;50.644;6.184;2024-02-15T06:29:31;10.80;99.90
15900;DHT22;8048;50.644;6.184;2024-02-15T06:32:15;10.70;99.90
15900;DHT22;8048;50.644;6.184;2024-02-15T06:34:59;10.80;99.90
15900;DHT22;8048;50.644;6.184;2024-02-15T06:37:43;10.90;99.90
15900;DHT22;8048;50.644;6.184;2024-02-15T06:40:27;10.80;99.90
15900;DHT22;8048;50.644;6.184;2024-02-15T06:42:52;10.80;99.90
15900;DHT22;8048;50.644;6.184;2024-02-15T06:45:18;10.80;99.90
15900;DHT22;8048;50.644;6.184;2024-02-15T06:47:44;10.80;99.90
15900;DHT22;8048;50.644;6.184;2024-02-15T06:50:13;10.90;99.90
15900;DHT22;8048;50.644;6.184;2024-02-15T06:52:39;10.80;99.90
15900;DHT22;8048;50.644;6.184;2024-02-15T06:55:08;10.80;99.90
15900;DHT22;8048;50.644;6.184;2024-02-15T06:57:35;10.90;99.90
15900;DHT22;8048;50.644;6.184;2024-02-15T07:00:05;10.90;99.90
15900;DHT22;8048;50.644;6.184;2024-02-15T07:02:35;10.90;99.90
15900;DHT22;8048;50.644;6.184;2024-02-15T07:05:00;10.90;99.90
15900;DHT22;8048;50.644;6.184;2024-02-15T07:07:26;10.90;99.90
15900;DHT22;8048;50.644;6.184;2024-02-15T07:09:52;10.80;99.90
15900;DHT22;8048;50.644;6.184;2024-02-15T07:12:18;10.80;99.90
15900;DHT22;8048;50.644;6.184;2024-02-15T07:14:45;10.80;99.90
15900;DHT22;8048;50.644;6.184;2024-02-15T07:17:13;10.90;99.90
15900;DHT22;8048;50.644;6.184;2024-02-15T07:19:44;10.80;99.90
15900;DHT22;8048;50.644;6.184;2024-02-15T07:22:10;10.80;99.90
15900;DHT22;8048;50.644;6.184;2024-02-15T07:24:36;10.80;99.90
15900;DHT22;8048;50.644;6.184;2024-02-15T07:27:04;10.80;99.90
15900;DHT22;8048;50.644;6.184;2024-02-15T07:29:30;10.90;99.90
15900;DHT22;8048;50.644;6.184;2024-02-15T07:31:58;10.90;99.90
15900;DHT22;8048;50.644;6.184;2024-02-15T07:34:24;10.80;99.90
15900;DHT22;8048;50.644;6.184;2024-02-15T07:36:51;10.90;99.90
15900;DHT22;8048;50.644;6.184;2024-02-15T07:39:17;10.90;99.90
15900;DHT22;8048;50.644;6.184;2024-02-15T07:41:53;10.90;99.90
15900;DHT22;8048;50.644;6.184;2024-02-15T07:44:20;11.00;99.90
15900;DHT22;8048;50.644;6.184;2024-02-15T07:46:46;10.90;99.90
15900;DHT22;8048;50.644;6.184;2024-02-15T07:49:11;10.90;99.90
15900;DHT22;8048;50.644;6.184;2024-02-15T07:51:37;10.90;99.90
15900;DHT22;8048;50.644;6.184;2024-02-15T07:54:03;11.00;99.90
15900;DHT22;8048;50.644;6.184;2024-02-15T07:56:28;11.00;99.90
15900;DHT22;8048;50.644;6.184;2024-02-15T07:58:54;11.00;99.90
15900;DHT22;8048;50.644;6.184;2024-02-15T08:01:20;11.10;99.90
15900;DHT22;8048;50.644;6.184;2024-02-15T08:03:46;11.10;99.90
15900;DHT22;8048;50.644;6.184;2024-02-15T08:06:13;11.10;99.90
15900;DHT22;8048;50.644;6.184;2024-02-15T08:08:39;11.10;99.90
15900;DHT22;8048;50.644;6.184;2024-02-15T08:11:07;11.20;99.90
15900;DHT22;8048;50.644;6.184;2024-02-15T08:16:13;11.20;99.90
15900;DHT22;8048;50.644;6.184;2024-02-15T08:18:42;11.20;99.90
15900;DHT22;8048;50.644;6.184;2024-02-15T08:21:09;11.30;99.90
15900;DHT22;8048;50.644;6.184;2024-02-15T08:23:36;11.30;99.90
15900;DHT22;8048;50.644;6.184;2024-02-15T08:26:01;11.40;99.90
15900;DHT22;8048;50.644;6.184;2024-02-15T08:28:27;11.40;99.90
15900;DHT22;8048;50.644;6.184;2024-02-15T08:30:54;11.40;99.90
15900;DHT22;8048;50.644;6.184;2024-02-15T08:33:21;11.50;99.90
15900;DHT22;8048;50.644;6.184;2024-02-15T08:35:47;11.50;99.90
15900;DHT22;8048;50.644;6.184;2024-02-15T08:38:12;11.60;99.90
15900;DHT22;8048;50.644;6.184;2024-02-15T08:40:38;11.60;99.90
15900;DHT22;8048;50.644;6.184;2024-02-15T08:43:03;11.60;99.90
15900;DHT22;8048;50.644;6.184;2024-02-15T08:45:29;11.70;99.90
15900;DHT22;8048;50.644;6.184;2024-02-15T08:47:55;11.70;99.90
15900;DHT22;8048;50.644;6.184;2024-02-15T08:50:20;11.70;99.90
15900;DHT22;8048;50.644;6.184;2024-02-15T08:52:48;11.70;99.90
15900;DHT22;8048;50.644;6.184;2024-02-15T08:55:15;11.80;99.90
15900;DHT22;8048;50.644;6.184;2024-02-15T08:57:41;11.80;99.90
15900;DHT22;8048;50.644;6.184;2024-02-15T09:00:10;11.80;99.90
15900;DHT22;8048;50.644;6.184;2024-02-15T09:05:07;12.00;99.90
15900;DHT22;8048;50.644;6.184;2024-02-15T09:07:33;12.00;99.90
15900;DHT22;8048;50.644;6.184;2024-02-15T09:09:59;12.00;99.90
15900;DHT22;8048;50.644;6.184;2024-02-15T09:12:25;12.10;99.90
15900;DHT22;8048;50.644;6.184;2024-02-15T09:14:50;12.20;99.90
15900;DHT22;8048;50.644;6.184;2024-02-15T09:17:16;12.40;99.90
15900;DHT22;8048;50.644;6.184;2024-02-15T09:19:41;12.40;99.90
15900;DHT22;8048;50.644;6.184;2024-02-15T09:22:07;12.50;99.90
15900;DHT22;8048;50.644;6.184;2024-02-15T09:24:33;12.60;99.90
15900;DHT22;8048;50.644;6.184;2024-02-15T09:27:02;12.60;99.90
15900;DHT22;8048;50.644;6.184;2024-02-15T09:29:30;12.70;99.90
15900;DHT22;8048;50.644;6.184;2024-02-15T09:31:58;12.70;99.90
15900;DHT22;8048;50.644;6.184;2024-02-15T09:34:24;12.70;99.90
15900;DHT22;8048;50.644;6.184;2024-02-15T09:36:50;12.80;99.90
15900;DHT22;8048;50.644;6.184;2024-02-15T09:39:16;12.80;99.90
15900;DHT22;8048;50.644;6.184;2024-02-15T09:41:42;12.80;99.90
15900;DHT22;8048;50.644;6.184;2024-02-15T09:44:08;12.90;99.90
15900;DHT22;8048;50.644;6.184;2024-02-15T09:46:42;12.90;99.90
15900;DHT22;8048;50.644;6.184;2024-02-15T09:49:11;12.80;99.90
15900;DHT22;8048;50.644;6.184;2024-02-15T09:51:38;12.90;99.90
15900;DHT22;8048;50.644;6.184;2024-02-15T09:54:04;12.90;99.90
15900;DHT22;8048;50.644;6.184;2024-02-15T09:56:31;12.90;99.90
15900;DHT22;8048;50.644;6.184;2024-02-15T09:58:59;12.90;99.90
15900;DHT22;8048;50.644;6.184;2024-02-15T10:01:25;12.90;99.90
15900;DHT22;8048;50.644;6.184;2024-02-15T10:03:52;12.90;99.90
15900;DHT22;8048;50.644;6.184;2024-02-15T10:06:19;13.00;99.90
15900;DHT22;8048;50.644;6.184;2024-02-15T10:08:45;13.00;99.90
15900;DHT22;8048;50.644;6.184;2024-02-15T10:11:12;13.10;99.90
15900;DHT22;8048;50.644;6.184;2024-02-15T10:13:39;13.10;99.90
15900;DHT22;8048;50.644;6.184;2024-02-15T10:16:18;13.20;99.90
15900;DHT22;8048;50.644;6.184;2024-02-15T10:18:45;13.20;99.90
15900;DHT22;8048;50.644;6.184;2024-02-15T10:21:24;13.30;99.90
15900;DHT22;8048;50.644;6.184;2024-02-15T10:24:06;13.30;99.90
15900;DHT22;8048;50.644;6.184;2024-02-15T10:26:32;13.40;99.90
15900;DHT22;8048;50.644;6.184;2024-02-15T10:31:35;13.40;99.90
15900;DHT22;8048;50.644;6.184;2024-02-15T10:34:05;13.50;99.90
15900;DHT22;8048;50.644;6.184;2024-02-15T10:36:31;13.50;99.90
15900;DHT22;8048;50.644;6.184;2024-02-15T10:39:16;13.60;99.90
15900;DHT22;8048;50.644;6.184;2024-02-15T10:41:50;13.70;99.90
15900;DHT22;8048;50.644;6.184;2024-02-15T10:44:21;13.80;99.90
15900;DHT22;8048;50.644;6.184;2024-02-15T10:46:48;13.90;99.90
15900;DHT22;8048;50.644;6.184;2024-02-15T10:49:25;14.00;99.90
15900;DHT22;8048;50.644;6.184;2024-02-15T10:51:58;14.10;99.90
15900;DHT22;8048;50.644;6.184;2024-02-15T10:54:41;14.20;99.90
15900;DHT22;8048;50.644;6.184;2024-02-15T10:57:10;14.40;99.90
15900;DHT22;8048;50.644;6.184;2024-02-15T10:59:57;14.40;99.90
15900;DHT22;8048;50.644;6.184;2024-02-15T11:02:37;14.40;99.90
15900;DHT22;8048;50.644;6.184;2024-02-15T11:05:05;14.60;99.90
15900;DHT22;8048;50.644;6.184;2024-02-15T11:07:35;14.60;99.80
15900;DHT22;8048;50.644;6.184;2024-02-15T11:10:03;14.70;99.90
15900;DHT22;8048;50.644;6.184;2024-02-15T11:12:33;14.70;99.90
15900;DHT22;8048;50.644;6.184;2024-02-15T11:14:59;14.80;99.90
15900;DHT22;8048;50.644;6.184;2024-02-15T11:20:54;15.10;99.90
15900;DHT22;8048;50.644;6.184;2024-02-15T11:22:57;15.30;99.90
15900;DHT22;8048;50.644;6.184;2024-02-15T11:25:32;15.30;99.20
15900;DHT22;8048;50.644;6.184;2024-02-15T11:30:50;15.40;99.10
15900;DHT22;8048;50.644;6.184;2024-02-15T11:33:30;15.40;99.90
15900;DHT22;8048;50.644;6.184;2024-02-15T11:38:31;15.40;99.50
15900;DHT22;8048;50.644;6.184;2024-02-15T11:46:13;15.20;99.00
15900;DHT22;8048;50.644;6.184;2024-02-15T11:48:39;15.10;99.20
15900;DHT22;8048;50.644;6.184;2024-02-15T11:51:05;15.00;99.20
15900;DHT22;8048;50.644;6.184;2024-02-15T11:53:32;15.00;99.90
15900;DHT22;8048;50.644;6.184;2024-02-15T11:56:01;14.90;99.50
15900;DHT22;8048;50.644;6.184;2024-02-15T11:58:30;14.80;99.60
15900;DHT22;8048;50.644;6.184;2024-02-15T12:01:11;14.90;99.90
15900;DHT22;8048;50.644;6.184;2024-02-15T12:03:56;14.80;99.90
15900;DHT22;8048;50.644;6.184;2024-02-15T12:06:58;14.80;99.90
15900;DHT22;8048;50.644;6.184;2024-02-15T12:09:43;14.60;99.80
15900;DHT22;8048;50.644;6.184;2024-02-15T12:12:27;14.60;99.90
15900;DHT22;8048;50.644;6.184;2024-02-15T12:15:11;14.50;99.90
15900;DHT22;8048;50.644;6.184;2024-02-15T12:17:55;14.40;99.90
15900;DHT22;8048;50.644;6.184;2024-02-15T12:20:39;14.30;99.90
15900;DHT22;8048;50.644;6.184;2024-02-15T12:23:04;14.20;99.80
15900;DHT22;8048;50.644;6.184;2024-02-15T12:25:32;14.20;99.90
15900;DHT22;8048;50.644;6.184;2024-02-15T12:27:59;14.20;99.90
15900;DHT22;8048;50.644;6.184;2024-02-15T12:30:26;14.10;99.90
15900;DHT22;8048;50.644;6.184;2024-02-15T12:33:12;14.10;99.90
15900;DHT22;8048;50.644;6.184;2024-02-15T12:35:38;14.10;99.90
15900;DHT22;8048;50.644;6.184;2024-02-15T12:38:04;14.10;99.90
15900;DHT22;8048;50.644;6.184;2024-02-15T12:40:34;14.10;99.90
15900;DHT22;8048;50.644;6.184;2024-02-15T12:43:00;14.10;99.90
15900;DHT22;8048;50.644;6.184;2024-02-15T12:45:26;14.10;99.90
15900;DHT22;8048;50.644;6.184;2024-02-15T12:47:56;14.10;99.90
15900;DHT22;8048;50.644;6.184;2024-02-15T12:50:31;14.10;99.90
15900;DHT22;8048;50.644;6.184;2024-02-15T12:52:57;14.10;99.90
15900;DHT22;8048;50.644;6.184;2024-02-15T12:55:32;14.10;99.90
15900;DHT22;8048;50.644;6.184;2024-02-15T12:58:04;14.00;99.90
15900;DHT22;8048;50.644;6.184;2024-02-15T13:00:34;14.00;99.90
15900;DHT22;8048;50.644;6.184;2024-02-15T13:03:03;14.00;99.90
15900;DHT22;8048;50.644;6.184;2024-02-15T13:05:30;14.00;99.90
15900;DHT22;8048;50.644;6.184;2024-02-15T13:07:56;13.90;99.60
15900;DHT22;8048;50.644;6.184;2024-02-15T13:10:28;13.90;99.90
15900;DHT22;8048;50.644;6.184;2024-02-15T13:12:55;13.90;99.90
15900;DHT22;8048;50.644;6.184;2024-02-15T13:15:22;13.90;99.90
15900;DHT22;8048;50.644;6.184;2024-02-15T13:17:52;13.90;99.60
15900;DHT22;8048;50.644;6.184;2024-02-15T13:20:19;13.90;99.70
15900;DHT22;8048;50.644;6.184;2024-02-15T13:22:46;13.90;99.70
15900;DHT22;8048;50.644;6.184;2024-02-15T13:25:16;13.90;99.70
15900;DHT22;8048;50.644;6.184;2024-02-15T13:27:42;13.80;99.70
15900;DHT22;8048;50.644;6.184;2024-02-15T13:30:09;13.80;99.30
15900;DHT22;8048;50.644;6.184;2024-02-15T13:32:39;13.80;99.30
15900;DHT22;8048;50.644;6.184;2024-02-15T13:35:09;13.80;99.50
15900;DHT22;8048;50.644;6.184;2024-02-15T13:37:51;13.70;99.60
15900;DHT22;8048;50.644;6.184;2024-02-15T13:40:22;13.70;99.50
15900;DHT22;8048;50.644;6.184;2024-02-15T13:42:54;13.70;99.40
15900;DHT22;8048;50.644;6.184;2024-02-15T13:45:39;13.70;99.50
15900;DHT22;8048;50.644;6.184;2024-02-15T13:48:06;13.80;99.30
15900;DHT22;8048;50.644;6.184;2024-02-15T13:50:36;13.80;99.50
15900;DHT22;8048;50.644;6.184;2024-02-15T13:53:03;13.80;99.10
15900;DHT22;8048;50.644;6.184;2024-02-15T13:55:29;13.80;99.30
15900;DHT22;8048;50.644;6.184;2024-02-15T13:57:55;13.80;99.00
15900;DHT22;8048;50.644;6.184;2024-02-15T14:00:22;13.80;98.70
15900;DHT22;8048;50.644;6.184;2024-02-15T14:05:14;13.80;98.80
15900;DHT22;8048;50.644;6.184;2024-02-15T14:07:39;13.80;98.80
15900;DHT22;8048;50.644;6.184;2024-02-15T14:10:06;13.80;98.50
15900;DHT22;8048;50.644;6.184;2024-02-15T14:12:33;13.80;98.40
15900;DHT22;8048;50.644;6.184;2024-02-15T14:14:58;13.70;98.80
15900;DHT22;8048;50.644;6.184;2024-02-15T14:17:24;13.70;98.90
15900;DHT22;8048;50.644;6.184;2024-02-15T14:19:49;13.80;98.50
15900;DHT22;8048;50.644;6.184;2024-02-15T14:22:15;13.70;98.90
15900;DHT22;8048;50.644;6.184;2024-02-15T14:24:44;13.70;98.60
15900;DHT22;8048;50.644;6.184;2024-02-15T14:27:11;13.70;99.00
15900;DHT22;8048;50.644;6.184;2024-02-15T14:29:37;13.70;98.60
15900;DHT22;8048;50.644;6.184;2024-02-15T14:32:13;13.80;98.80
15900;DHT22;8048;50.644;6.184;2024-02-15T14:34:57;13.80;98.50
15900;DHT22;8048;50.644;6.184;2024-02-15T14:37:23;13.80;98.70
15900;DHT22;8048;50.644;6.184;2024-02-15T14:39:49;13.90;98.70
15900;DHT22;8048;50.644;6.184;2024-02-15T14:42:15;13.90;98.80
15900;DHT22;8048;50.644;6.184;2024-02-15T14:44:41;13.90;98.70
15900;DHT22;8048;50.644;6.184;2024-02-15T14:47:08;13.90;98.90
15900;DHT22;8048;50.644;6.184;2024-02-15T14:49:34;14.00;98.60
15900;DHT22;8048;50.644;6.184;2024-02-15T14:52:03;13.90;99.10
15900;DHT22;8048;50.644;6.184;2024-02-15T14:54:28;14.00;98.60
15900;DHT22;8048;50.644;6.184;2024-02-15T14:56:55;14.00;98.50
15900;DHT22;8048;50.644;6.184;2024-02-15T14:59:20;13.90;98.80
15900;DHT22;8048;50.644;6.184;2024-02-15T15:01:46;13.90;98.90
15900;DHT22;8048;50.644;6.184;2024-02-15T15:04:11;13.90;98.80
15900;DHT22;8048;50.644;6.184;2024-02-15T15:06:38;13.90;98.90
15900;DHT22;8048;50.644;6.184;2024-02-15T15:09:22;13.90;98.90
15900;DHT22;8048;50.644;6.184;2024-02-15T15:12:06;13.90;99.10
15900;DHT22;8048;50.644;6.184;2024-02-15T15:14:50;13.90;98.90
15900;DHT22;8048;50.644;6.184;2024-02-15T15:17:16;13.90;99.40
15900;DHT22;8048;50.644;6.184;2024-02-15T15:19:42;14.10;99.10
15900;DHT22;8048;50.644;6.184;2024-02-15T15:22:08;14.20;98.90
15900;DHT22;8048;50.644;6.184;2024-02-15T15:24:34;14.30;98.50
15900;DHT22;8048;50.644;6.184;2024-02-15T15:26:59;14.30;98.40
15900;DHT22;8048;50.644;6.184;2024-02-15T15:29:25;14.30;98.30
15900;DHT22;8048;50.644;6.184;2024-02-15T15:31:52;14.30;98.30
15900;DHT22;8048;50.644;6.184;2024-02-15T15:34:18;14.30;98.30
15900;DHT22;8048;50.644;6.184;2024-02-15T15:36:45;14.30;97.90
15900;DHT22;8048;50.644;6.184;2024-02-15T15:39:13;14.30;98.20
15900;DHT22;8048;50.644;6.184;2024-02-15T15:41:44;14.30;98.20
15900;DHT22;8048;50.644;6.184;2024-02-15T15:44:09;14.20;98.10
15900;DHT22;8048;50.644;6.184;2024-02-15T15:46:35;14.20;98.20
15900;DHT22;8048;50.644;6.184;2024-02-15T15:49:01;14.10;98.00
15900;DHT22;8048;50.644;6.184;2024-02-15T15:51:27;14.10;97.90
15900;DHT22;8048;50.644;6.184;2024-02-15T15:53:52;14.10;97.80
15900;DHT22;8048;50.644;6.184;2024-02-15T15:56:20;14.00;97.70
15900;DHT22;8048;50.644;6.184;2024-02-15T15:58:47;13.90;97.50
15900;DHT22;8048;50.644;6.184;2024-02-15T16:01:14;13.80;97.50
15900;DHT22;8048;50.644;6.184;2024-02-15T16:03:40;13.80;97.20
15900;DHT22;8048;50.644;6.184;2024-02-15T16:06:06;13.80;97.20
15900;DHT22;8048;50.644;6.184;2024-02-15T16:08:37;13.80;97.50
15900;DHT22;8048;50.644;6.184;2024-02-15T16:11:02;13.70;97.50
15900;DHT22;8048;50.644;6.184;2024-02-15T16:13:28;13.70;97.50
15900;DHT22;8048;50.644;6.184;2024-02-15T16:15:53;13.70;97.30
15900;DHT22;8048;50.644;6.184;2024-02-15T16:18:20;13.70;97.00